createdAt,value
2022-08-23T00:02:57.190Z,17.15
2022-08-23T00:08:00.108Z,17.17
2022-08-23T00:13:03.471Z,17.17
2022-08-23T00:18:06.338Z,17.09
2022-08-23T00:23:09.385Z,17.01
2022-08-23T00:28:14.693Z,16.91
2022-08-23T00:33:17.833Z,16.78
2022-08-23T00:38:33.918Z,16.72
2022-08-23T00:44:00.660Z,16.70
2022-08-23T00:49:09.031Z,16.70
2022-08-23T00:54:14.482Z,16.70
2022-08-23T00:59:17.893Z,16.72
2022-08-23T01:04:21.115Z,16.77
2022-08-23T01:09:24.186Z,16.79
2022-08-23T01:14:38.561Z,16.79
2022-08-23T01:19:53.569Z,16.78
2022-08-23T01:25:08.484Z,16.70
2022-08-23T01:30:14.869Z,16.66
2022-08-23T01:40:29.451Z,16.64
2022-08-23T01:45:33.159Z,16.67
2022-08-23T01:55:44.359Z,16.61
2022-08-23T02:00:47.312Z,16.58
2022-08-23T02:10:58.478Z,16.46
2022-08-23T02:16:01.298Z,16.42
2022-08-23T02:21:04.918Z,16.44
2022-08-23T02:26:07.705Z,16.50
2022-08-23T02:31:11.356Z,16.57
2022-08-23T02:36:15.249Z,16.59
2022-08-23T02:41:18.092Z,16.60
2022-08-23T02:46:21.640Z,16.71
2022-08-23T02:51:24.982Z,16.89
2022-08-23T02:56:27.704Z,16.99
2022-08-23T03:01:31.534Z,17.04
2022-08-23T03:06:34.679Z,17.08
2022-08-23T03:11:38.402Z,17.16
2022-08-23T03:16:41.953Z,17.18
2022-08-23T03:21:44.664Z,17.18
2022-08-23T03:26:47.286Z,17.21
2022-08-23T03:31:51.661Z,17.29
2022-08-23T03:36:56.797Z,17.37
2022-08-23T03:42:00.036Z,17.47
2022-08-23T03:47:02.815Z,17.43
2022-08-23T03:52:06.870Z,17.41
2022-08-23T03:57:10.364Z,17.41
2022-08-23T04:02:13.764Z,17.43
2022-08-23T04:07:23.305Z,17.48
2022-08-23T04:12:26.059Z,17.50
2022-08-23T04:17:32.249Z,17.54
2022-08-23T04:22:35.599Z,17.58
2022-08-23T04:27:38.303Z,17.58
2022-08-23T04:32:41.052Z,17.60
2022-08-23T04:37:46.457Z,17.62
2022-08-23T04:42:49.261Z,17.66
2022-08-23T04:47:51.986Z,17.71
2022-08-23T04:52:54.783Z,17.76
2022-08-23T04:57:57.791Z,17.82
2022-08-23T05:03:00.678Z,17.94
2022-08-23T05:08:04.184Z,18.03
2022-08-23T05:13:06.889Z,18.14
2022-08-23T05:18:10.151Z,18.28
2022-08-23T05:23:12.865Z,18.53
2022-08-23T05:28:34.859Z,18.73
2022-08-23T05:33:45.091Z,18.92
2022-08-23T05:38:48.449Z,19.13
2022-08-23T05:43:51.167Z,19.21
2022-08-23T05:48:53.939Z,19.37
2022-08-23T05:54:02.569Z,19.52
2022-08-23T05:59:12.734Z,19.68
2022-08-23T06:04:15.975Z,19.85
2022-08-23T06:09:18.752Z,19.92
2022-08-23T06:14:23.777Z,20.01
2022-08-23T06:19:27.191Z,20.23
2022-08-23T06:24:29.964Z,20.54
2022-08-23T06:29:33.107Z,20.81
2022-08-23T06:34:38.199Z,21.17
2022-08-23T06:39:41.666Z,21.47
2022-08-23T06:44:44.447Z,21.71
2022-08-23T06:49:50.914Z,21.84
2022-08-23T06:55:00.301Z,22.02
2022-08-23T07:00:04.101Z,22.15
2022-08-23T07:05:07.448Z,22.30
2022-08-23T07:10:12.000Z,22.53
2022-08-23T07:15:14.839Z,22.65
2022-08-23T07:20:17.607Z,22.84
2022-08-23T07:25:20.741Z,23.04
2022-08-23T07:30:23.536Z,23.16
2022-08-23T07:35:28.579Z,23.03
2022-08-23T07:40:33.545Z,22.76
2022-08-23T07:45:40.839Z,22.43
2022-08-23T07:50:58.119Z,22.12
2022-08-23T07:56:05.464Z,22.08
2022-08-23T08:01:29.540Z,22.14
2022-08-23T08:06:46.340Z,22.20
2022-08-23T08:11:52.692Z,22.23
2022-08-23T08:16:58.634Z,22.39
2022-08-23T08:22:01.696Z,22.64
2022-08-23T08:27:05.263Z,23.19
2022-08-23T08:32:09.123Z,23.41
2022-08-23T08:37:16.947Z,23.59
2022-08-23T08:42:20.431Z,23.74
2022-08-23T08:47:57.362Z,23.87
2022-08-23T08:53:03.792Z,24.08
2022-08-23T08:58:13.742Z,24.09
2022-08-23T09:03:22.143Z,24.01
2022-08-23T09:08:41.322Z,24.10
2022-08-23T09:14:16.863Z,24.21
2022-08-23T09:19:22.356Z,24.31
2022-08-23T09:24:26.246Z,24.48
2022-08-23T09:29:33.082Z,24.60
2022-08-23T09:34:36.362Z,24.69
2022-08-23T09:40:20.495Z,24.84
2022-08-23T09:45:54.522Z,24.97
2022-08-23T09:51:06.758Z,25.20
2022-08-23T09:56:15.483Z,25.35
2022-08-23T10:01:18.475Z,25.56
2022-08-23T10:06:34.960Z,25.84
2022-08-23T10:11:45.977Z,25.98
2022-08-23T10:17:08.439Z,26.12
2022-08-23T10:22:23.760Z,26.34
2022-08-23T10:27:50.715Z,26.60
2022-08-23T10:33:18.366Z,26.90
2022-08-23T10:38:36.319Z,27.25
2022-08-23T10:43:53.214Z,27.76
2022-08-23T10:49:00.203Z,28.09
2022-08-23T10:54:08.931Z,28.37
2022-08-23T10:59:20.414Z,28.66
2022-08-23T11:04:33.875Z,28.85
2022-08-23T11:09:50.353Z,28.93
2022-08-23T11:14:57.199Z,28.94
2022-08-23T11:20:04.416Z,28.75
2022-08-23T11:25:27.112Z,28.77
2022-08-23T11:30:33.079Z,28.86
2022-08-23T11:35:43.359Z,28.93
2022-08-23T11:40:52.297Z,28.97
2022-08-23T11:46:13.226Z,28.99
2022-08-23T11:51:40.892Z,28.96
2022-08-23T11:57:06.924Z,29.02
2022-08-23T12:02:37.912Z,29.12
2022-08-23T12:08:17.750Z,29.21
2022-08-23T12:13:22.975Z,29.38
2022-08-23T12:18:26.268Z,29.29
2022-08-23T12:23:30.857Z,29.53
2022-08-23T12:28:57.330Z,29.89
2022-08-23T12:34:32.354Z,30.06
2022-08-23T12:39:40.221Z,30.01
2022-08-23T12:44:45.816Z,30.22
2022-08-23T12:50:02.387Z,30.46
2022-08-23T12:55:19.955Z,30.17
2022-08-23T13:00:31.045Z,29.59
2022-08-23T13:05:46.146Z,29.02
2022-08-23T13:10:49.658Z,28.66
2022-08-23T13:15:55.912Z,28.34
2022-08-23T13:21:23.156Z,27.98
2022-08-23T13:26:37.319Z,27.58
2022-08-23T13:32:03.272Z,27.27
2022-08-23T13:37:23.496Z,26.93
2022-08-23T13:42:33.992Z,26.60
2022-08-23T13:47:37.786Z,26.41
2022-08-23T13:53:03.180Z,26.21
2022-08-23T13:58:13.172Z,25.80
2022-08-23T14:03:15.874Z,25.35
2022-08-23T14:08:19.966Z,24.92
2022-08-23T14:13:28.543Z,24.56
2022-08-23T14:18:32.462Z,23.88
2022-08-23T14:23:35.650Z,23.22
2022-08-23T14:28:42.562Z,22.55
2022-08-23T14:33:48.832Z,22.10
2022-08-23T14:38:52.132Z,21.73
2022-08-23T14:43:55.385Z,21.45
2022-08-23T14:48:58.311Z,21.36
2022-08-23T14:54:03.942Z,21.26
2022-08-23T14:59:07.022Z,21.21
2022-08-23T15:04:10.169Z,21.18
2022-08-23T15:09:12.976Z,21.12
2022-08-23T15:14:15.914Z,21.01
2022-08-23T15:19:18.635Z,20.95
2022-08-23T15:24:21.511Z,20.91
2022-08-23T15:29:24.289Z,20.81
2022-08-23T15:34:27.189Z,20.75
2022-08-23T15:39:31.909Z,20.78
2022-08-23T15:44:34.640Z,20.76
2022-08-23T15:49:37.389Z,20.70
2022-08-23T15:54:40.182Z,20.61
2022-08-23T15:59:43.548Z,20.58
2022-08-23T16:04:46.776Z,20.61
2022-08-23T16:09:49.662Z,20.63
2022-08-23T16:14:52.614Z,20.57
2022-08-23T16:19:55.306Z,20.42
2022-08-23T16:24:58.173Z,20.25
2022-08-23T16:30:00.899Z,20.07
2022-08-23T16:35:04.540Z,19.81
2022-08-23T16:40:09.256Z,19.51
2022-08-23T16:45:12.704Z,19.39
2022-08-23T16:50:15.709Z,19.24
2022-08-23T16:55:18.587Z,19.15
2022-08-23T17:00:21.515Z,19.15
2022-08-23T17:05:24.628Z,19.17
2022-08-23T17:10:28.193Z,19.21
2022-08-23T17:15:36.117Z,19.28
2022-08-23T17:20:39.849Z,19.29
2022-08-23T17:25:47.747Z,19.31
2022-08-23T17:30:50.538Z,19.40
2022-08-23T17:35:53.509Z,19.45
2022-08-23T17:40:56.539Z,19.47
2022-08-23T17:45:59.346Z,19.50
2022-08-23T17:51:02.136Z,19.52
2022-08-23T17:56:04.983Z,19.54
2022-08-23T18:01:11.479Z,19.56
2022-08-23T18:06:17.236Z,19.58
2022-08-23T18:11:20.182Z,19.58
2022-08-23T18:16:22.974Z,19.53
2022-08-23T18:21:28.949Z,19.50
2022-08-23T18:26:54.171Z,19.48
2022-08-23T18:31:57.024Z,19.48
2022-08-23T18:37:00.345Z,19.48
2022-08-23T18:42:05.334Z,19.52
2022-08-23T18:47:08.491Z,19.59
2022-08-23T18:52:12.498Z,19.59
2022-08-23T18:57:16.352Z,19.53
2022-08-23T19:02:19.701Z,19.53
2022-08-23T19:07:22.597Z,19.53
2022-08-23T19:12:26.057Z,19.56
2022-08-23T19:17:28.789Z,19.59
2022-08-23T19:22:31.638Z,19.66
2022-08-23T19:27:35.090Z,19.73
2022-08-23T19:32:39.694Z,19.77
2022-08-23T19:37:43.840Z,19.78
2022-08-23T19:42:46.629Z,19.82
2022-08-23T19:47:49.304Z,19.83
2022-08-23T19:52:57.015Z,19.86
2022-08-23T19:58:00.817Z,19.89
2022-08-23T20:03:04.731Z,19.91
2022-08-23T20:08:07.604Z,19.95
2022-08-23T20:13:10.288Z,20.06
2022-08-23T20:18:12.985Z,20.16
2022-08-23T20:23:34.127Z,20.17
2022-08-23T20:28:36.962Z,20.18
2022-08-23T20:33:43.297Z,20.12
2022-08-23T20:38:49.091Z,20.07
2022-08-23T20:43:52.098Z,20.06
2022-08-23T20:48:57.497Z,20.04
2022-08-23T20:54:00.698Z,20.03
2022-08-23T20:59:05.548Z,20.04
2022-08-23T21:04:08.277Z,20.01
2022-08-23T21:09:14.717Z,19.97
2022-08-23T21:14:19.610Z,19.95
2022-08-23T21:19:22.457Z,20.03
2022-08-23T21:24:26.382Z,20.06
2022-08-23T21:29:29.068Z,20.04
2022-08-23T21:34:31.809Z,19.92
2022-08-23T21:39:34.504Z,19.80
2022-08-23T21:44:37.198Z,19.69
2022-08-23T21:49:40.056Z,19.63
2022-08-23T21:54:43.674Z,19.59
2022-08-23T21:59:46.840Z,19.60
2022-08-23T22:04:50.477Z,19.65
2022-08-23T22:09:53.129Z,19.68
2022-08-23T22:14:56.564Z,19.67
2022-08-23T22:19:59.279Z,19.68
2022-08-23T22:25:03.415Z,19.64
2022-08-23T22:30:06.901Z,19.57
2022-08-23T22:35:11.678Z,19.55
2022-08-23T22:40:14.415Z,19.50
2022-08-23T22:45:19.120Z,19.47
2022-08-23T22:50:21.869Z,19.47
2022-08-23T22:55:25.197Z,19.51
2022-08-23T23:00:28.135Z,19.55
2022-08-23T23:05:33.907Z,19.56
2022-08-23T23:10:36.923Z,19.59
2022-08-23T23:15:40.236Z,19.57
2022-08-23T23:20:43.000Z,19.55
2022-08-23T23:25:46.273Z,19.46
2022-08-23T23:30:51.853Z,19.37
2022-08-23T23:35:54.721Z,19.33
2022-08-23T23:40:57.460Z,19.26
2022-08-23T23:46:14.968Z,19.14
2022-08-23T23:51:23.940Z,19.08
2022-08-23T23:56:28.723Z,19.00
